Time;durP1;ratioP1;P1;durP2;ratioP2;P2;SDS_P1;SDS_P2;PMS_P1;PMS_P2;Temp;Humidity;BMP_temperature;BMP_pressure;BME280_temperature;BME280_humidity;BME280_pressure;Samples;Min_cycle;Max_cycle;Signal;HPM_P1;HPM_P2
2023/11/13 00:02:19;;;;;;;8.57;2.28;;;11.10;99.90;;;;;;5048387;28;20029;-59
2023/11/13 00:04:45;;;;;;;9.85;2.35;;;11.10;99.90;;;;;;5030588;28;20038;-58
2023/11/13 00:07:11;;;;;;;7.30;2.58;;;11.10;99.90;;;;;;5030386;28;20021;-58
2023/11/13 00:09:37;;;;;;;8.65;2.45;;;11.10;99.90;;;;;;5046886;28;20485;-58
2023/11/13 00:12:03;;;;;;;9.52;2.25;;;11.10;99.90;;;;;;5046794;28;20021;-58
2023/11/13 00:14:29;;;;;;;6.07;2.20;;;11.10;99.90;;;;;;5047107;28;20104;-58
2023/11/13 00:16:54;;;;;;;8.25;2.45;;;11.10;99.90;;;;;;5047899;28;20044;-58
2023/11/13 00:19:22;;;;;;;8.00;2.25;;;11.10;99.90;;;;;;5048133;28;20030;-58
2023/11/13 00:21:47;;;;;;;6.85;2.33;;;11.10;99.90;;;;;;5047870;28;20025;-58
2023/11/13 00:24:13;;;;;;;6.00;2.08;;;11.10;99.90;;;;;;5046514;28;20038;-58
2023/11/13 00:26:39;;;;;;;6.05;2.20;;;11.10;99.90;;;;;;5046961;28;20382;-58
2023/11/13 00:29:05;;;;;;;6.38;1.55;;;11.10;99.90;;;;;;5046382;28;20061;-58
2023/11/13 00:31:31;;;;;;;8.25;1.92;;;11.10;99.90;;;;;;5046428;28;20021;-58
2023/11/13 00:33:57;;;;;;;10.02;2.20;;;11.10;99.90;;;;;;5047673;28;20128;-59
2023/11/13 00:36:23;;;;;;;4.90;2.10;;;11.10;99.90;;;;;;5046492;28;20123;-58
2023/11/13 00:38:48;;;;;;;5.45;2.08;;;11.10;99.90;;;;;;5047683;28;20044;-58
2023/11/13 00:41:14;;;;;;;5.30;2.05;;;11.20;99.90;;;;;;5046322;28;20030;-58
2023/11/13 00:43:40;;;;;;;6.80;1.73;;;11.10;99.90;;;;;;5046198;28;20105;-58
2023/11/13 00:46:09;;;;;;;3.38;1.42;;;11.10;99.90;;;;;;5047498;28;20045;-58
2023/11/13 00:48:37;;;;;;;5.35;1.83;;;11.10;99.90;;;;;;5046007;28;20493;-58
2023/11/13 00:51:03;;;;;;;5.78;1.55;;;11.10;99.90;;;;;;5046222;28;20026;-58
2023/11/13 00:53:35;;;;;;;6.68;2.00;;;11.10;99.90;;;;;;5045892;28;20032;-58
2023/11/13 00:56:01;;;;;;;5.75;1.75;;;11.10;99.90;;;;;;5046180;28;20515;-58
2023/11/13 00:58:27;;;;;;;9.13;2.13;;;11.10;99.90;;;;;;5047077;28;20108;-58
2023/11/13 01:00:52;;;;;;;6.90;1.60;;;11.20;99.90;;;;;;5047264;28;20033;-58
2023/11/13 01:03:18;;;;;;;4.25;1.50;;;11.20;99.90;;;;;;5046175;28;20021;-58
2023/11/13 01:05:43;;;;;;;5.38;1.77;;;11.10;99.90;;;;;;5031112;28;20021;-57
2023/11/13 01:08:10;;;;;;;4.63;1.60;;;11.10;99.90;;;;;;5045811;28;20034;-58
2023/11/13 01:10:35;;;;;;;7.93;1.75;;;11.10;99.90;;;;;;5045816;28;20029;-58
2023/11/13 01:13:01;;;;;;;5.32;1.48;;;11.20;99.90;;;;;;5045359;28;20363;-58
2023/11/13 01:15:27;;;;;;;5.93;1.63;;;11.20;99.90;;;;;;5045169;28;20096;-57
2023/11/13 01:17:52;;;;;;;4.43;1.35;;;11.10;99.90;;;;;;5045702;28;20032;-57
2023/11/13 01:20:18;;;;;;;3.80;1.38;;;11.20;99.90;;;;;;5046413;28;20033;-57
2023/11/13 01:22:44;;;;;;;7.25;1.73;;;11.20;99.90;;;;;;5045327;28;20048;-58
2023/11/13 01:25:09;;;;;;;5.03;1.90;;;11.20;99.90;;;;;;5046551;28;20410;-57
2023/11/13 01:27:35;;;;;;;4.60;1.50;;;11.20;99.90;;;;;;5045363;28;20021;-57
2023/11/13 01:30:00;;;;;;;4.80;1.35;;;11.20;99.90;;;;;;5045225;28;20030;-58
2023/11/13 01:32:26;;;;;;;3.78;1.48;;;11.30;99.90;;;;;;5045281;28;20032;-58
2023/11/13 01:34:52;;;;;;;3.42;1.40;;;11.20;99.90;;;;;;5046764;28;20033;-58
2023/11/13 01:37:18;;;;;;;3.20;1.15;;;11.20;99.90;;;;;;5046497;28;20049;-58
2023/11/13 01:39:44;;;;;;;3.50;1.20;;;11.20;99.90;;;;;;5046510;28;20037;-57
2023/11/13 01:42:10;;;;;;;3.05;1.30;;;11.20;99.90;;;;;;5046351;28;20496;-58
2023/11/13 01:44:35;;;;;;;3.50;1.45;;;11.20;99.90;;;;;;5046432;28;20033;-58
2023/11/13 01:47:01;;;;;;;3.30;1.15;;;11.20;99.90;;;;;;5044960;28;20030;-58
2023/11/13 01:49:26;;;;;;;3.17;1.27;;;11.20;99.90;;;;;;5045065;28;20474;-58
2023/11/13 01:51:52;;;;;;;2.75;1.10;;;11.20;99.90;;;;;;5045194;28;20026;-58
2023/11/13 01:54:17;;;;;;;5.15;1.10;;;11.20;99.90;;;;;;5045175;28;20089;-58
2023/11/13 01:56:43;;;;;;;3.50;1.30;;;11.20;99.90;;;;;;5045035;28;20069;-58
2023/11/13 01:59:09;;;;;;;4.32;1.38;;;11.20;99.90;;;;;;5045078;28;20022;-58
2023/11/13 02:01:34;;;;;;;3.97;1.17;;;11.20;99.90;;;;;;5045001;28;20064;-58
2023/11/13 02:04:00;;;;;;;4.15;1.13;;;11.30;99.90;;;;;;5044907;28;20120;-58
2023/11/13 02:06:25;;;;;;;3.97;1.25;;;11.20;99.90;;;;;;5044937;28;20029;-58
2023/11/13 02:08:51;;;;;;;2.47;1.23;;;11.20;99.90;;;;;;5046011;28;20061;-58
2023/11/13 02:11:17;;;;;;;3.53;1.60;;;11.30;99.90;;;;;;5044872;28;20025;-58
2023/11/13 02:13:44;;;;;;;3.42;1.13;;;11.20;99.90;;;;;;5044748;28;20029;-58
2023/11/13 02:16:12;;;;;;;3.42;1.30;;;11.30;99.90;;;;;;5044850;28;20029;-58
2023/11/13 02:18:37;;;;;;;4.82;1.50;;;11.30;99.90;;;;;;5046241;28;20060;-57
2023/11/13 02:21:03;;;;;;;3.70;1.25;;;11.30;99.90;;;;;;5044917;28;20458;-58
2023/11/13 02:23:29;;;;;;;5.65;1.13;;;11.30;99.90;;;;;;5044540;28;20053;-57
2023/11/13 02:25:57;;;;;;;4.63;1.50;;;11.30;99.90;;;;;;5044735;28;20029;-58
2023/11/13 02:28:23;;;;;;;1.92;1.05;;;11.30;99.90;;;;;;5046175;28;20025;-58
2023/11/13 02:30:49;;;;;;;1.88;1.15;;;11.30;99.90;;;;;;5044907;28;20060;-58
2023/11/13 02:33:15;;;;;;;2.25;1.00;;;11.30;99.90;;;;;;5044652;28;20017;-57
2023/11/13 02:35:41;;;;;;;3.65;1.42;;;11.30;99.90;;;;;;5044713;28;20029;-58
2023/11/13 02:38:07;;;;;;;4.63;1.48;;;11.30;99.90;;;;;;5046156;28;20084;-58
2023/11/13 02:40:32;;;;;;;6.15;1.40;;;11.30;99.90;;;;;;5046452;28;20385;-58
2023/11/13 02:42:58;;;;;;;3.50;1.13;;;11.30;99.90;;;;;;5044640;28;20041;-58
2023/11/13 02:45:24;;;;;;;2.42;1.00;;;11.30;99.90;;;;;;5046082;28;20030;-58
2023/11/13 02:47:53;;;;;;;3.83;1.17;;;11.30;99.90;;;;;;5044517;28;20072;-58
2023/11/13 02:50:18;;;;;;;2.53;1.10;;;11.30;99.90;;;;;;5049275;28;20032;-58
2023/11/13 02:52:44;;;;;;;4.88;1.60;;;11.30;99.90;;;;;;5048504;28;20041;-57
2023/11/13 02:55:10;;;;;;;3.65;1.58;;;11.30;99.90;;;;;;5048204;28;20056;-58
2023/11/13 02:57:36;;;;;;;3.28;1.08;;;11.30;99.90;;;;;;5049441;28;20385;-58
2023/11/13 03:00:07;;;;;;;2.22;1.25;;;11.30;99.90;;;;;;5048313;28;20030;-58
2023/11/13 03:02:33;;;;;;;4.80;1.10;;;11.30;99.90;;;;;;5048130;28;20055;-58
2023/11/13 03:04:59;;;;;;;2.80;1.02;;;11.30;99.90;;;;;;5049492;28;20025;-57
2023/11/13 03:07:25;;;;;;;4.10;1.17;;;11.30;99.90;;;;;;5047844;28;20080;-58
2023/11/13 03:09:53;;;;;;;4.03;1.35;;;11.30;99.90;;;;;;5031557;28;20026;-58
2023/11/13 03:12:18;;;;;;;4.35;1.17;;;11.40;99.90;;;;;;5049336;28;20124;-58
2023/11/13 03:14:44;;;;;;;1.98;1.15;;;11.40;99.90;;;;;;5047856;28;20029;-58
2023/11/13 03:17:09;;;;;;;3.78;1.10;;;11.40;99.90;;;;;;5047910;28;20029;-58
2023/11/13 03:19:35;;;;;;;2.33;0.88;;;11.40;99.90;;;;;;5049135;28;20088;-58
2023/11/13 03:22:01;;;;;;;3.22;1.15;;;11.40;99.90;;;;;;5047859;28;20037;-58
2023/11/13 03:24:26;;;;;;;3.80;1.50;;;11.40;99.90;;;;;;5047537;28;20048;-57
2023/11/13 03:26:52;;;;;;;3.05;0.80;;;11.40;99.90;;;;;;5047684;28;20035;-58
2023/11/13 03:29:17;;;;;;;2.47;1.08;;;11.40;99.90;;;;;;5048949;28;20022;-58
2023/11/13 03:31:43;;;;;;;3.70;1.20;;;11.40;99.90;;;;;;5047560;28;20109;-58
2023/11/13 03:34:08;;;;;;;1.83;0.82;;;11.40;99.90;;;;;;5048872;28;20108;-57
2023/11/13 03:36:34;;;;;;;2.85;0.98;;;11.40;99.90;;;;;;5048914;28;20385;-57
2023/11/13 03:39:00;;;;;;;4.07;1.50;;;11.40;99.90;;;;;;5047439;28;20400;-57
2023/11/13 03:41:25;;;;;;;2.65;1.10;;;11.40;99.90;;;;;;5048852;28;20441;-58
2023/11/13 03:43:51;;;;;;;3.90;1.30;;;11.40;99.90;;;;;;5047397;28;20260;-58
2023/11/13 03:46:16;;;;;;;3.67;1.20;;;11.40;99.90;;;;;;5048629;28;20406;-58
2023/11/13 03:48:42;;;;;;;3.08;0.98;;;11.50;99.90;;;;;;5048576;28;20351;-58
2023/11/13 03:51:07;;;;;;;3.17;1.27;;;11.40;99.90;;;;;;5048782;28;20044;-58
2023/11/13 03:53:34;;;;;;;2.55;1.08;;;11.40;99.90;;;;;;5030807;28;20036;-58
2023/11/13 03:56:00;;;;;;;3.65;1.13;;;11.40;99.90;;;;;;5047515;28;20028;-58
2023/11/13 03:58:26;;;;;;;2.35;0.80;;;11.40;99.90;;;;;;5031250;28;20029;-58
2023/11/13 04:00:51;;;;;;;2.67;0.98;;;11.40;99.90;;;;;;5046044;28;20039;-58
2023/11/13 04:03:17;;;;;;;3.42;1.25;;;11.40;99.90;;;;;;5047106;28;20021;-57
2023/11/13 04:05:42;;;;;;;5.00;1.08;;;11.40;99.90;;;;;;5047127;28;20025;-58
2023/11/13 04:08:08;;;;;;;2.35;0.77;;;11.40;99.90;;;;;;5030319;28;20116;-58
2023/11/13 04:10:34;;;;;;;3.45;1.02;;;11.40;99.90;;;;;;5047109;28;20029;-58
2023/11/13 04:13:00;;;;;;;2.58;1.27;;;11.40;99.90;;;;;;5046916;28;20026;-58
2023/11/13 04:15:25;;;;;;;3.20;0.95;;;11.40;99.90;;;;;;5047994;28;20115;-58
2023/11/13 04:17:51;;;;;;;2.45;0.90;;;11.40;99.90;;;;;;5046802;28;20038;-58
2023/11/13 04:20:18;;;;;;;3.90;1.10;;;11.40;99.90;;;;;;5048094;28;20491;-59
2023/11/13 04:22:44;;;;;;;3.35;0.90;;;11.40;99.90;;;;;;5048168;28;20037;-58
2023/11/13 04:25:10;;;;;;;3.55;1.40;;;11.50;99.90;;;;;;5046349;28;20409;-59
2023/11/13 04:27:35;;;;;;;3.80;1.10;;;11.50;99.90;;;;;;5046413;28;20025;-59
2023/11/13 04:30:01;;;;;;;3.33;1.20;;;11.40;99.90;;;;;;5047845;28;20545;-58
2023/11/13 04:32:27;;;;;;;2.03;1.17;;;11.40;99.90;;;;;;5047846;28;20482;-58
2023/11/13 04:34:52;;;;;;;2.92;1.02;;;11.50;99.90;;;;;;5047852;28;20033;-58
2023/11/13 04:37:18;;;;;;;2.42;1.00;;;11.50;99.90;;;;;;5046475;28;20026;-58
2023/11/13 04:39:44;;;;;;;4.80;1.20;;;11.40;99.90;;;;;;5046107;28;20033;-58
2023/11/13 04:42:10;;;;;;;2.20;1.10;;;11.40;99.90;;;;;;5047695;28;20025;-58
2023/11/13 04:44:36;;;;;;;1.83;0.88;;;11.50;99.90;;;;;;5047505;28;20445;-59
2023/11/13 04:47:02;;;;;;;5.38;1.20;;;11.50;99.90;;;;;;5047503;28;20030;-58
2023/11/13 04:49:29;;;;;;;2.80;1.15;;;11.50;99.90;;;;;;5046150;28;20034;-58
2023/11/13 04:51:54;;;;;;;3.25;1.10;;;11.50;99.90;;;;;;5046134;28;20091;-58
2023/11/13 04:54:20;;;;;;;3.83;1.00;;;11.50;99.90;;;;;;5047225;28;20124;-58
2023/11/13 04:56:46;;;;;;;2.22;1.13;;;11.50;99.90;;;;;;5046015;28;20025;-58
2023/11/13 04:59:11;;;;;;;1.83;0.90;;;11.50;99.90;;;;;;5045874;28;20101;-58
2023/11/13 05:01:38;;;;;;;5.78;1.55;;;11.50;99.90;;;;;;5047323;28;20501;-58
2023/11/13 05:04:05;;;;;;;3.67;1.33;;;11.50;99.90;;;;;;5047130;28;20029;-58
2023/11/13 05:06:31;;;;;;;3.25;1.13;;;11.50;99.90;;;;;;5047055;28;20036;-58
2023/11/13 05:08:56;;;;;;;3.50;1.25;;;11.50;99.90;;;;;;5046973;28;20034;-58
2023/11/13 05:11:26;;;;;;;2.88;1.30;;;11.50;99.90;;;;;;5045608;28;20044;-58
2023/11/13 05:13:52;;;;;;;1.77;0.98;;;11.50;99.90;;;;;;5045704;28;20223;-58
2023/11/13 05:16:22;;;;;;;4.70;1.00;;;11.50;99.90;;;;;;5045703;28;20021;-58
2023/11/13 05:18:47;;;;;;;6.32;1.48;;;11.60;99.90;;;;;;5045672;28;20108;-58
2023/11/13 05:21:16;;;;;;;3.13;1.20;;;11.50;99.90;;;;;;5045716;28;20021;-58
2023/11/13 05:23:42;;;;;;;3.47;1.20;;;11.50;99.90;;;;;;5045365;28;20044;-58
2023/11/13 05:26:07;;;;;;;3.42;1.13;;;11.50;99.90;;;;;;5046813;28;20025;-58
2023/11/13 05:28:33;;;;;;;2.38;0.93;;;11.60;99.90;;;;;;5045387;28;20041;-58
2023/11/13 05:31:01;;;;;;;1.42;0.90;;;11.50;99.90;;;;;;5046743;28;20060;-58
2023/11/13 05:33:30;;;;;;;2.33;1.08;;;11.60;99.90;;;;;;5045246;28;20022;-58
2023/11/13 05:35:56;;;;;;;3.35;1.25;;;11.60;99.90;;;;;;5045501;28;20025;-58
2023/11/13 05:38:21;;;;;;;2.10;1.05;;;11.60;99.90;;;;;;5046491;28;20044;-58
2023/11/13 05:40:47;;;;;;;2.17;0.95;;;11.60;99.90;;;;;;5028798;28;20104;-59
2023/11/13 05:43:12;;;;;;;2.63;1.30;;;11.60;99.90;;;;;;5045345;28;20045;-58
2023/11/13 05:45:38;;;;;;;2.38;1.10;;;11.60;99.90;;;;;;5046597;28;20076;-58
2023/11/13 05:48:04;;;;;;;2.90;1.13;;;11.50;99.90;;;;;;5045288;28;20036;-58
2023/11/13 05:50:30;;;;;;;2.75;1.23;;;11.60;99.90;;;;;;5045111;28;20390;-58
2023/11/13 05:52:55;;;;;;;3.95;1.20;;;11.60;99.90;;;;;;5045098;28;20030;-58
2023/11/13 05:55:22;;;;;;;2.17;0.95;;;11.60;99.90;;;;;;5046463;28;20021;-58
2023/11/13 05:57:48;;;;;;;3.20;1.30;;;11.60;99.90;;;;;;5044984;28;20029;-58
2023/11/13 06:00:16;;;;;;;2.88;1.20;;;11.60;99.90;;;;;;5044994;28;20029;-58
2023/11/13 06:02:42;;;;;;;4.55;1.10;;;11.60;99.90;;;;;;5045063;28;20022;-58
2023/11/13 06:05:08;;;;;;;3.03;1.42;;;11.60;99.90;;;;;;5028262;28;20044;-58
2023/11/13 06:07:33;;;;;;;5.03;1.77;;;11.60;99.90;;;;;;5044851;28;20083;-58
2023/11/13 06:10:07;;;;;;;5.70;1.45;;;11.60;99.90;;;;;;5044824;28;20029;-58
2023/11/13 06:12:33;;;;;;;3.15;1.40;;;11.60;99.90;;;;;;5046436;28;20033;-58
2023/11/13 06:14:59;;;;;;;4.30;1.40;;;11.60;99.90;;;;;;5044831;28;20029;-58
2023/11/13 06:17:25;;;;;;;4.13;1.48;;;11.60;99.90;;;;;;5046271;28;20033;-58
2023/11/13 06:19:51;;;;;;;4.82;1.60;;;11.70;99.90;;;;;;5044957;28;20088;-58
2023/11/13 06:22:17;;;;;;;3.15;1.42;;;11.60;99.90;;;;;;5046141;28;20095;-57
2023/11/13 06:24:43;;;;;;;4.00;1.30;;;11.60;99.90;;;;;;5047076;28;20033;-57
2023/11/13 06:27:09;;;;;;;2.35;1.17;;;11.60;99.90;;;;;;5048765;28;20060;-58
2023/11/13 06:29:35;;;;;;;4.95;1.50;;;11.60;99.90;;;;;;5049304;28;20439;-58
2023/11/13 06:32:01;;;;;;;3.05;0.93;;;11.60;99.90;;;;;;5049896;28;20025;-58
2023/11/13 06:34:28;;;;;;;5.22;1.65;;;11.60;99.90;;;;;;5048589;28;20080;-58
2023/11/13 06:36:53;;;;;;;4.45;1.20;;;11.60;99.90;;;;;;5048453;28;20018;-58
2023/11/13 06:39:19;;;;;;;4.38;1.52;;;11.60;99.90;;;;;;5048730;28;20064;-58
2023/11/13 06:41:45;;;;;;;2.75;1.33;;;11.60;99.90;;;;;;5048281;28;20025;-58
2023/11/13 06:44:11;;;;;;;3.83;1.25;;;11.60;99.90;;;;;;5049681;28;20033;-57
2023/11/13 06:46:37;;;;;;;4.00;1.70;;;11.60;99.90;;;;;;5049592;28;20462;-57
2023/11/13 06:49:03;;;;;;;4.00;1.30;;;11.60;99.90;;;;;;5048229;28;20033;-57
2023/11/13 06:51:28;;;;;;;3.17;1.40;;;11.60;99.90;;;;;;5048421;28;20532;-58
2023/11/13 06:53:54;;;;;;;5.78;1.33;;;11.70;99.90;;;;;;5048163;28;20029;-58
2023/11/13 06:56:20;;;;;;;3.30;1.10;;;11.70;99.90;;;;;;5048226;28;20025;-58
2023/11/13 06:58:45;;;;;;;3.15;1.20;;;11.70;99.90;;;;;;5048014;28;20040;-58
2023/11/13 07:01:11;;;;;;;3.80;1.10;;;11.70;99.90;;;;;;5049432;28;20112;-58
2023/11/13 07:03:38;;;;;;;4.30;1.50;;;11.70;99.90;;;;;;5049407;28;20037;-58
2023/11/13 07:06:06;;;;;;;3.45;1.10;;;11.70;99.90;;;;;;5031850;28;20025;-58
2023/11/13 07:08:35;;;;;;;4.53;1.30;;;11.70;99.90;;;;;;5031815;28;20370;-58
2023/11/13 07:11:01;;;;;;;3.20;1.30;;;11.70;99.90;;;;;;5048040;28;20025;-58
2023/11/13 07:13:26;;;;;;;1.95;1.08;;;11.70;99.90;;;;;;5049244;28;20033;-58
2023/11/13 07:15:52;;;;;;;1.55;0.80;;;11.70;99.90;;;;;;5047848;28;20021;-58
2023/11/13 07:18:18;;;;;;;3.17;1.25;;;11.70;99.90;;;;;;5048924;28;20381;-58
2023/11/13 07:20:43;;;;;;;2.40;1.20;;;11.70;99.90;;;;;;5047552;28;20029;-58
2023/11/13 07:23:16;;;;;;;4.70;1.60;;;11.70;99.90;;;;;;5047871;28;20040;-57
2023/11/13 07:25:44;;;;;;;5.82;1.58;;;11.70;99.90;;;;;;5048863;28;20041;-58
2023/11/13 07:28:10;;;;;;;9.63;1.20;;;11.80;99.90;;;;;;5047736;28;20025;-58
2023/11/13 07:30:37;;;;;;;2.05;1.33;;;11.80;99.90;;;;;;5047292;28;20097;-58
2023/11/13 07:33:03;;;;;;;5.82;1.60;;;11.80;99.90;;;;;;5047634;28;20028;-58
2023/11/13 07:35:28;;;;;;;9.38;1.55;;;11.80;99.90;;;;;;5030860;28;20033;-58
2023/11/13 07:37:54;;;;;;;28.67;3.33;;;11.80;99.90;;;;;;5047515;28;20040;-58
2023/11/13 07:40:20;;;;;;;46.00;5.10;;;11.80;99.90;;;;;;5047448;28;20116;-58
2023/11/13 07:42:47;;;;;;;26.25;3.63;;;11.80;99.90;;;;;;5047145;28;20025;-58
2023/11/13 07:45:13;;;;;;;19.85;3.05;;;11.80;99.90;;;;;;5047250;28;20041;-58
2023/11/13 07:47:39;;;;;;;15.30;2.35;;;11.80;99.90;;;;;;5030542;28;20026;-58
2023/11/13 07:50:11;;;;;;;18.90;2.22;;;11.90;99.90;;;;;;5047239;28;20067;-57
2023/11/13 07:52:40;;;;;;;9.20;2.15;;;11.80;99.90;;;;;;5039947;28;20030;-58
2023/11/13 07:55:08;;;;;;;9.90;2.00;;;11.90;99.90;;;;;;5064814;28;20037;-53
2023/11/13 07:57:34;;;;;;;32.65;3.85;;;11.90;99.90;;;;;;5067259;28;20029;-53
2023/11/13 08:00:01;;;;;;;18.95;2.78;;;11.90;99.90;;;;;;5066907;28;20098;-53
2023/11/13 08:02:26;;;;;;;11.18;2.10;;;11.90;99.90;;;;;;5065134;28;20025;-53
2023/11/13 08:04:52;;;;;;;13.43;1.95;;;11.90;99.90;;;;;;5066867;28;20043;-53
2023/11/13 08:07:18;;;;;;;16.40;2.35;;;11.90;99.90;;;;;;5068125;28;20039;-53
2023/11/13 08:09:44;;;;;;;31.83;3.10;;;12.00;99.90;;;;;;5066176;28;20055;-54
2023/11/13 08:12:10;;;;;;;19.85;2.92;;;11.90;99.90;;;;;;5066929;28;20022;-53
2023/11/13 08:14:35;;;;;;;24.92;3.13;;;11.90;99.90;;;;;;5066656;28;20032;-54
2023/11/13 08:17:02;;;;;;;52.10;4.75;;;11.90;99.90;;;;;;5059930;28;20014;-54
2023/11/13 08:19:28;;;;;;;38.40;3.72;;;12.00;99.90;;;;;;5047216;28;20038;-53
2023/11/13 08:21:54;;;;;;;18.50;3.10;;;12.00;99.90;;;;;;5045970;28;20037;-53
2023/11/13 08:24:19;;;;;;;25.80;2.70;;;12.00;99.90;;;;;;5047517;28;20045;-53
2023/11/13 08:26:46;;;;;;;18.42;3.28;;;12.00;99.90;;;;;;5044472;28;20367;-53
2023/11/13 08:29:15;;;;;;;16.05;2.25;;;12.00;99.90;;;;;;5046360;28;20187;-53
2023/11/13 08:31:44;;;;;;;19.98;2.45;;;12.00;99.90;;;;;;5046370;28;20029;-53
2023/11/13 08:34:09;;;;;;;24.08;2.40;;;12.00;99.90;;;;;;5047628;28;20037;-53
2023/11/13 08:36:37;;;;;;;14.80;2.25;;;12.00;99.90;;;;;;5037758;28;20090;-53
2023/11/13 08:39:05;;;;;;;20.83;2.60;;;12.00;99.90;;;;;;5056440;28;20048;-53
2023/11/13 08:41:33;;;;;;;8.13;1.98;;;12.00;99.90;;;;;;5046191;28;20040;-54
2023/11/13 08:44:00;;;;;;;15.95;1.45;;;12.10;99.90;;;;;;5046557;28;20514;-54
2023/11/13 08:46:26;;;;;;;5.97;1.70;;;12.20;99.90;;;;;;5045020;28;20108;-53
2023/11/13 08:48:51;;;;;;;16.63;2.22;;;12.20;99.90;;;;;;5032155;28;20483;-54
2023/11/13 08:51:18;;;;;;;11.00;1.75;;;12.20;99.90;;;;;;5032493;28;20029;-54
2023/11/13 08:53:43;;;;;;;22.08;2.50;;;12.20;99.90;;;;;;5039276;28;20035;-54
2023/11/13 08:56:15;;;;;;;19.55;3.03;;;12.20;99.90;;;;;;5044981;28;20057;-53
2023/11/13 08:58:44;;;;;;;14.30;2.30;;;12.20;99.90;;;;;;5042324;28;20049;-53
2023/11/13 09:01:11;;;;;;;14.60;2.00;;;12.20;99.90;;;;;;5041714;28;20033;-53
2023/11/13 09:03:37;;;;;;;18.30;2.15;;;12.20;99.90;;;;;;5044970;28;20041;-53
2023/11/13 09:06:13;;;;;;;12.38;1.65;;;12.20;99.90;;;;;;5041571;28;20030;-53
2023/11/13 09:08:42;;;;;;;18.35;2.55;;;12.30;99.90;;;;;;5038822;28;20525;-53
2023/11/13 09:11:08;;;;;;;15.85;1.98;;;12.30;99.90;;;;;;5039128;28;20029;-54
2023/11/13 09:13:33;;;;;;;17.90;2.85;;;12.40;99.90;;;;;;5046624;28;20054;-53
2023/11/13 09:16:04;;;;;;;16.30;2.60;;;12.40;99.90;;;;;;5051328;28;20151;-53
2023/11/13 09:18:31;;;;;;;22.40;3.80;;;12.40;99.90;;;;;;5042548;28;20029;-53
2023/11/13 09:20:56;;;;;;;37.90;4.18;;;12.40;99.90;;;;;;5041548;28;20029;-53
2023/11/13 09:23:22;;;;;;;21.90;2.70;;;12.40;99.90;;;;;;5049314;28;20026;-54
2023/11/13 09:25:47;;;;;;;24.05;2.58;;;12.40;99.90;;;;;;5048777;28;20033;-54
2023/11/13 09:28:13;;;;;;;28.33;3.88;;;12.40;99.90;;;;;;5049084;28;20033;-54
2023/11/13 09:30:39;;;;;;;19.33;2.42;;;12.40;99.90;;;;;;5042647;28;20084;-53
2023/11/13 09:33:08;;;;;;;17.00;2.95;;;12.40;99.90;;;;;;5049600;28;20047;-54
2023/11/13 09:35:36;;;;;;;23.30;2.60;;;12.50;99.90;;;;;;5033707;28;20045;-54
2023/11/13 09:38:02;;;;;;;11.10;2.60;;;12.50;99.90;;;;;;5033914;28;20033;-53
2023/11/13 09:40:34;;;;;;;20.75;2.80;;;12.50;99.90;;;;;;5053529;28;20416;-54
2023/11/13 09:43:34;;;;;;;19.23;2.55;;;12.50;99.90;;;;;;5042553;28;20056;-53
2023/11/13 09:46:03;;;;;;;17.38;3.22;;;12.50;99.90;;;;;;5068431;28;20041;-53
2023/11/13 09:48:29;;;;;;;22.23;3.13;;;12.50;99.90;;;;;;5060213;28;20017;-54
2023/11/13 09:50:58;;;;;;;25.95;2.67;;;12.50;99.90;;;;;;5055337;28;20032;-54
2023/11/13 09:53:26;;;;;;;19.23;2.85;;;12.50;99.90;;;;;;5030148;28;20029;-53
2023/11/13 09:55:52;;;;;;;14.98;2.42;;;12.50;99.90;;;;;;5047343;28;20084;-54
2023/11/13 09:58:18;;;;;;;18.00;2.58;;;12.60;99.90;;;;;;5042988;28;20029;-54
2023/11/13 10:00:44;;;;;;;18.80;2.55;;;12.60;99.90;;;;;;5045758;28;20393;-54
2023/11/13 10:03:09;;;;;;;18.38;2.45;;;12.60;99.90;;;;;;5042741;28;20467;-54
2023/11/13 10:05:35;;;;;;;18.17;3.25;;;12.60;99.90;;;;;;5057279;28;20041;-54
2023/11/13 10:08:00;;;;;;;22.92;2.90;;;12.60;99.90;;;;;;5037658;28;20026;-53
2023/11/13 10:10:29;;;;;;;17.08;2.80;;;12.60;99.90;;;;;;5045644;28;20036;-54
2023/11/13 10:12:56;;;;;;;18.08;2.90;;;12.60;99.90;;;;;;5019717;28;20029;-54
2023/11/13 10:15:23;;;;;;;10.70;2.40;;;12.60;99.90;;;;;;5046248;28;20109;-54
2023/11/13 10:17:49;;;;;;;19.42;2.30;;;12.70;99.90;;;;;;5067629;28;20037;-53
2023/11/13 10:20:19;;;;;;;21.75;2.65;;;12.60;99.90;;;;;;5047762;28;20060;-54
2023/11/13 10:22:54;;;;;;;18.77;2.72;;;12.60;99.90;;;;;;5025517;28;20034;-54
2023/11/13 10:25:20;;;;;;;;;;;12.60;99.90;;;;;;5043550;28;20044;-53
2023/11/13 10:27:46;;;;;;;18.60;2.78;;;12.70;99.90;;;;;;5041861;28;19913;-54
2023/11/13 10:30:12;;;;;;;10.48;2.72;;;12.70;99.90;;;;;;5027906;28;20042;-54
2023/11/13 10:32:38;;;;;;;13.57;2.30;;;12.70;99.90;;;;;;5045296;28;20462;-54
2023/11/13 10:35:05;;;;;;;10.27;2.50;;;12.70;99.90;;;;;;5044029;28;20034;-53
2023/11/13 10:37:31;;;;;;;58.50;8.70;;;12.70;99.90;;;;;;5044557;28;20022;-53
2023/11/13 10:39:57;;;;;;;46.58;6.20;;;12.80;99.90;;;;;;5027007;28;20048;-54
2023/11/13 10:42:25;;;;;;;32.17;5.25;;;12.80;99.90;;;;;;5044722;28;20030;-53
2023/11/13 10:44:58;;;;;;;57.83;8.40;;;12.80;99.90;;;;;;5044848;28;20034;-54
2023/11/13 10:47:25;;;;;;;61.95;8.60;;;12.80;99.90;;;;;;5027600;28;20032;-53
2023/11/13 10:49:52;;;;;;;48.03;8.35;;;12.80;99.90;;;;;;5043754;28;20086;-54
2023/11/13 10:52:18;;;;;;;58.17;7.25;;;12.80;99.90;;;;;;5027481;28;20022;-54
2023/11/13 10:54:48;;;;;;;40.70;6.45;;;12.90;99.90;;;;;;5044708;28;20037;-52
2023/11/13 10:57:15;;;;;;;47.75;6.20;;;12.90;99.90;;;;;;5045438;28;20025;-53
2023/11/13 10:59:40;;;;;;;37.17;5.05;;;12.90;99.90;;;;;;5044024;28;20037;-53
2023/11/13 11:02:11;;;;;;;63.75;6.60;;;12.90;99.90;;;;;;5043808;28;20021;-53
2023/11/13 11:04:41;;;;;;;43.83;5.13;;;12.90;99.90;;;;;;5043969;28;20034;-54
2023/11/13 11:07:07;;;;;;;32.72;5.07;;;13.00;99.90;;;;;;5043834;28;20025;-54
2023/11/13 11:09:33;;;;;;;31.15;5.38;;;13.00;99.90;;;;;;5044502;28;20033;-54
2023/11/13 11:11:58;;;;;;;37.03;4.85;;;13.00;99.90;;;;;;5047515;28;20029;-54
2023/11/13 11:14:31;;;;;;;39.47;5.85;;;13.00;99.90;;;;;;5047565;28;20034;-53
2023/11/13 11:17:05;;;;;;;53.85;6.63;;;13.10;99.90;;;;;;5047550;28;20456;-53
2023/11/13 11:19:44;;;;;;;36.67;5.18;;;13.10;99.90;;;;;;5047442;28;20056;-54
2023/11/13 11:22:13;;;;;;;52.72;5.88;;;13.10;99.90;;;;;;5047460;28;20044;-54
2023/11/13 11:24:57;;;;;;;35.28;6.50;;;13.10;99.90;;;;;;5047174;28;20064;-54
2023/11/13 11:27:34;;;;;;;36.25;5.65;;;13.10;99.90;;;;;;5047029;28;20033;-54
2023/11/13 11:29:59;;;;;;;33.53;5.25;;;13.20;99.90;;;;;;5047025;28;20034;-54
2023/11/13 11:32:25;;;;;;;45.50;6.15;;;13.20;99.90;;;;;;5048175;28;20036;-53
2023/11/13 11:34:58;;;;;;;40.70;6.18;;;13.20;99.90;;;;;;5047072;28;20061;-54
2023/11/13 11:37:23;;;;;;;37.80;5.80;;;13.20;99.90;;;;;;5046663;28;20035;-54
2023/11/13 11:39:50;;;;;;;36.40;6.07;;;13.30;99.90;;;;;;5046521;28;20109;-54
2023/11/13 11:42:20;;;;;;;49.55;8.07;;;13.30;99.90;;;;;;5045406;28;20025;-54
2023/11/13 11:44:56;;;;;;;61.78;8.30;;;13.30;99.90;;;;;;5046873;28;20042;-54
2023/11/13 11:47:25;;;;;;;48.05;7.78;;;13.30;99.90;;;;;;5047807;28;20057;-54
2023/11/13 11:49:52;;;;;;;50.05;7.03;;;13.30;99.90;;;;;;5030779;28;20053;-54
2023/11/13 11:52:17;;;;;;;45.45;6.65;;;13.30;99.90;;;;;;5046710;28;20029;-54
2023/11/13 11:54:43;;;;;;;62.55;9.05;;;13.40;99.90;;;;;;5046778;28;20107;-53
2023/11/13 11:57:10;;;;;;;51.10;6.95;;;13.40;99.90;;;;;;5046530;28;20029;-54
2023/11/13 11:59:36;;;;;;;73.35;9.32;;;13.50;99.90;;;;;;5047706;28;20462;-54
2023/11/13 12:02:04;;;;;;;152.05;16.23;;;13.40;99.90;;;;;;5046803;28;20029;-53
2023/11/13 12:04:33;;;;;;;51.33;7.72;;;13.40;99.90;;;;;;5048200;28;20421;-54
2023/11/13 12:07:08;;;;;;;59.60;7.07;;;13.50;99.90;;;;;;5046502;28;20048;-53
2023/11/13 12:09:40;;;;;;;61.88;8.35;;;13.50;99.90;;;;;;5046524;28;20036;-53
2023/11/13 12:12:07;;;;;;;60.58;6.22;;;13.50;99.90;;;;;;5046802;28;20040;-53
2023/11/13 12:14:32;;;;;;;49.78;6.70;;;13.50;99.90;;;;;;5047825;28;20026;-53
2023/11/13 12:16:58;;;;;;;39.90;7.10;;;13.50;99.90;;;;;;5046505;28;20044;-53
2023/11/13 12:19:24;;;;;;;48.10;7.75;;;13.50;99.90;;;;;;5047671;28;20089;-53
2023/11/13 12:21:50;;;;;;;68.20;9.10;;;13.50;99.90;;;;;;5045046;28;20036;-53
2023/11/13 12:24:17;;;;;;;49.80;7.22;;;13.50;99.90;;;;;;5027548;28;20033;-53
2023/11/13 12:26:46;;;;;;;42.55;5.68;;;13.60;99.90;;;;;;5036857;28;20029;-53
2023/11/13 12:29:17;;;;;;;53.97;8.57;;;13.60;99.90;;;;;;5058450;28;20037;-53
2023/11/13 12:31:46;;;;;;;53.38;6.95;;;13.60;99.90;;;;;;5021005;28;20398;-53
2023/11/13 12:34:14;;;;;;;51.85;7.65;;;13.60;99.90;;;;;;5048488;28;20025;-53
2023/11/13 12:36:46;;;;;;;155.50;16.00;;;13.60;99.90;;;;;;5058648;28;20029;-53
2023/11/13 12:39:18;;;;;;;125.95;14.18;;;13.60;99.90;;;;;;5064531;28;20037;-53
2023/11/13 12:41:47;;;;;;;80.93;11.32;;;13.60;99.90;;;;;;5045590;28;20049;-53